Time;durP1;ratioP1;P1;durP2;ratioP2;P2;SDS_P1;SDS_P2;PMS_P1;PMS_P2;Temp;Humidity;BMP_temperature;BMP_pressure;BME280_temperature;BME280_humidity;BME280_pressure;Samples;Min_cycle;Max_cycle;Signal;HPM_P1;HPM_P2
2021/12/26 00:01:24;;;;;;;21.50;9.37;;;;;;;-5.71;100.00;100431.78;10544050;28;20219;-69
2021/12/26 00:06:29;;;;;;;23.97;8.80;;;;;;;-5.64;100.00;100435.53;10543677;28;20682;-68
2021/12/26 00:11:33;;;;;;;27.90;9.57;;;;;;;-5.81;100.00;100433.72;10543271;28;20231;-67
2021/12/26 00:16:36;;;;;;;27.93;9.43;;;;;;;-5.89;100.00;100438.38;10543302;28;20211;-69
2021/12/26 00:21:41;;;;;;;22.43;9.73;;;;;;;-5.86;100.00;100436.03;10543318;28;20314;-68
2021/12/26 00:26:45;;;;;;;27.20;9.37;;;;;;;-5.82;100.00;100439.59;10544109;28;20242;-68
2021/12/26 00:31:48;;;;;;;27.77;9.63;;;;;;;-5.72;100.00;100442.69;10542977;28;20554;-67
2021/12/26 00:36:53;;;;;;;26.93;9.30;;;;;;;-5.75;100.00;100451.75;10542769;28;20243;-69
2021/12/26 00:41:56;;;;;;;22.30;8.97;;;;;;;-5.77;100.00;100439.03;10542634;28;20522;-70
2021/12/26 00:47:00;;;;;;;24.53;9.57;;;;;;;-5.85;100.00;100437.78;10542629;28;20656;-67
2021/12/26 00:52:05;;;;;;;25.83;9.53;;;;;;;-5.95;100.00;100449.00;10541931;28;20227;-68
2021/12/26 00:57:09;;;;;;;29.63;10.00;;;;;;;-5.65;100.00;100434.66;10542274;28;20556;-67
2021/12/26 01:02:12;;;;;;;27.23;10.10;;;;;;;-5.78;100.00;100446.53;10539942;28;20220;-68
2021/12/26 01:07:28;;;;;;;24.80;9.90;;;;;;;-6.14;100.00;100455.47;10539012;28;20239;-69
2021/12/26 01:12:32;;;;;;;27.20;11.57;;;;;;;-5.98;100.00;100447.97;10538897;28;20223;-68
2021/12/26 01:17:35;;;;;;;29.70;11.10;;;;;;;-6.00;100.00;100454.59;10538847;28;20215;-67
2021/12/26 01:22:40;;;;;;;26.13;9.80;;;;;;;-5.74;100.00;100448.41;10226661;27;10000373;-67
2021/12/26 01:27:43;;;;;;;24.60;10.20;;;;;;;-5.62;100.00;100447.44;10580754;28;20443;-69
2021/12/26 01:32:46;;;;;;;29.17;10.20;;;;;;;-5.80;100.00;100443.03;10580394;28;20687;-66
2021/12/26 01:37:51;;;;;;;25.33;10.33;;;;;;;-6.05;100.00;100443.34;10580988;28;20293;-68
2021/12/26 01:43:00;;;;;;;27.17;10.07;;;;;;;-6.11;100.00;100453.13;10580512;28;20221;-70
2021/12/26 01:48:05;;;;;;;22.63;9.83;;;;;;;-6.10;100.00;100449.81;10580197;28;20220;-67
2021/12/26 01:53:10;;;;;;;29.77;9.93;;;;;;;-5.85;100.00;100460.53;10581857;28;20231;-69
2021/12/26 01:58:16;;;;;;;30.53;10.93;;;;;;;-6.06;100.00;100465.22;10587767;28;20550;-67
2021/12/26 02:03:19;;;;;;;30.77;9.93;;;;;;;-5.98;100.00;100458.06;10587603;28;20223;-66
2021/12/26 02:08:24;;;;;;;27.80;10.03;;;;;;;-6.09;100.00;100466.72;10588074;28;20221;-66
2021/12/26 02:13:28;;;;;;;21.40;9.00;;;;;;;-5.76;100.00;100462.66;10590605;28;20795;-66
2021/12/26 02:18:31;;;;;;;25.70;11.40;;;;;;;-5.99;100.00;100453.81;10590500;28;20268;-67
2021/12/26 02:23:43;;;;;;;26.50;10.27;;;;;;;-5.97;100.00;100454.78;10589902;28;20624;-67
2021/12/26 02:28:48;;;;;;;34.30;10.83;;;;;;;-6.06;100.00;100462.69;10589819;28;20211;-67
2021/12/26 02:33:51;;;;;;;33.87;11.67;;;;;;;-6.22;100.00;100464.25;10590244;28;20222;-69
2021/12/26 02:38:56;;;;;;;24.87;10.77;;;;;;;-6.21;100.00;100473.56;10589687;28;20671;-66
2021/12/26 02:43:59;;;;;;;24.97;9.83;;;;;;;-6.05;100.00;100476.19;10589333;28;20671;-66
2021/12/26 02:49:03;;;;;;;28.90;10.73;;;;;;;-6.20;100.00;100478.72;10589251;28;20191;-72
2021/12/26 02:54:07;;;;;;;26.03;10.20;;;;;;;-6.12;100.00;100479.16;10588814;28;20215;-69
2021/12/26 02:59:11;;;;;;;29.07;10.70;;;;;;;-6.28;100.00;100477.41;10588730;28;20191;-68
2021/12/26 03:04:15;;;;;;;39.23;14.23;;;;;;;-6.24;100.00;100480.97;10587281;28;20241;-68
2021/12/26 03:09:20;;;;;;;25.50;9.93;;;;;;;-6.34;100.00;100479.59;10588371;28;20187;-70
2021/12/26 03:14:24;;;;;;;25.73;10.07;;;;;;;-6.15;100.00;100478.97;10588139;28;20210;-68
2021/12/26 03:19:28;;;;;;;54.23;21.03;;;;;;;-5.98;100.00;100479.16;10588578;28;20183;-72
2021/12/26 03:24:34;;;;;;;26.17;10.40;;;;;;;-6.33;100.00;100480.44;10587967;28;20190;-71
2021/12/26 03:29:37;;;;;;;27.97;10.00;;;;;;;-6.10;100.00;100482.63;10587154;28;20190;-68
2021/12/26 03:34:46;;;;;;;24.07;9.43;;;;;;;-6.13;100.00;100477.41;10587056;28;20244;-66
2021/12/26 03:39:51;;;;;;;25.10;9.00;;;;;;;-6.13;100.00;100479.94;10587021;28;20286;-67
2021/12/26 03:44:54;;;;;;;27.13;9.13;;;;;;;-6.09;100.00;100467.56;10586911;28;20209;-72
2021/12/26 03:49:58;;;;;;;25.97;9.27;;;;;;;-6.10;100.00;100477.59;10587034;28;20193;-69
2021/12/26 03:55:03;;;;;;;25.70;10.13;;;;;;;-6.29;100.00;100469.75;10586783;28;20246;-63
2021/12/26 04:00:08;;;;;;;26.10;9.67;;;;;;;-6.32;100.00;100469.56;10586810;28;20278;-69
2021/12/26 04:05:14;;;;;;;23.47;9.60;;;;;;;-6.48;100.00;100474.50;10586231;28;20230;-70
2021/12/26 04:10:20;;;;;;;27.97;9.33;;;;;;;-6.39;100.00;100477.56;10586087;28;20494;-66
2021/12/26 04:15:24;;;;;;;25.20;9.57;;;;;;;-6.39;100.00;100483.50;10585523;28;20245;-67
2021/12/26 04:20:29;;;;;;;22.30;8.80;;;;;;;-6.07;100.00;100485.31;10585949;28;20187;-68
2021/12/26 04:25:34;;;;;;;27.63;10.80;;;;;;;-6.30;100.00;100488.22;10585423;27;20205;-70
2021/12/26 04:30:38;;;;;;;33.20;11.93;;;;;;;-6.57;100.00;100489.09;10584995;28;20193;-68
2021/12/26 04:35:42;;;;;;;26.87;10.17;;;;;;;-6.47;100.00;100492.25;10585070;28;20215;-68
2021/12/26 04:40:46;;;;;;;25.47;10.87;;;;;;;-6.48;100.00;100493.06;10585324;28;20634;-65
2021/12/26 04:45:49;;;;;;;29.87;10.10;;;;;;;-6.32;100.00;100492.28;10584783;28;20213;-69
2021/12/26 04:50:53;;;;;;;26.27;10.77;;;;;;;-6.47;100.00;100494.78;10584674;28;20190;-69
2021/12/26 04:55:58;;;;;;;26.77;10.73;;;;;;;-6.51;100.00;100497.94;10584970;28;20245;-63
2021/12/26 05:01:01;;;;;;;27.47;10.53;;;;;;;-6.54;100.00;100502.78;10584681;28;20197;-68
2021/12/26 05:06:04;;;;;;;28.73;9.87;;;;;;;-6.53;100.00;100503.66;10584272;28;20591;-67
2021/12/26 05:11:09;;;;;;;28.50;10.13;;;;;;;-6.60;100.00;100489.81;10584157;28;20194;-71
2021/12/26 05:16:13;;;;;;;26.53;11.73;;;;;;;-6.66;100.00;100496.16;10584495;28;20548;-70
2021/12/26 05:21:16;;;;;;;32.63;11.17;;;;;;;-6.63;100.00;100506.41;10584180;28;20258;-67
2021/12/26 05:26:21;;;;;;;26.80;9.90;;;;;;;-6.68;100.00;100502.75;10584313;28;20280;-68
2021/12/26 05:31:24;;;;;;;25.07;9.70;;;;;;;-6.60;100.00;100499.03;10590607;28;20206;-69
2021/12/26 05:36:27;;;;;;;26.20;10.30;;;;;;;-6.65;100.00;100500.41;10592105;28;20282;-66
2021/12/26 05:41:32;;;;;;;30.20;11.53;;;;;;;-6.73;100.00;100509.19;10592060;28;20201;-64
2021/12/26 05:46:37;;;;;;;24.20;11.20;;;;;;;-6.90;100.00;100520.75;10591662;28;20633;-70
2021/12/26 05:51:42;;;;;;;37.37;16.67;;;;;;;-6.83;100.00;100524.53;10591756;28;20187;-67
2021/12/26 05:56:49;;;;;;;19.03;8.60;;;;;;;-6.55;100.00;100522.88;10591277;28;20210;-71
2021/12/26 06:01:52;;;;;;;26.67;12.20;;;;;;;-6.49;100.00;100518.19;10591549;28;20278;-71
2021/12/26 06:06:56;;;;;;;27.93;11.93;;;;;;;-6.68;100.00;100530.50;10591432;28;20226;-71
2021/12/26 06:12:01;;;;;;;32.30;11.43;;;;;;;-6.73;100.00;100536.94;10591760;28;20210;-68
2021/12/26 06:17:05;;;;;;;36.67;13.20;;;;;;;-6.75;100.00;100541.88;10590431;28;20218;-71
2021/12/26 06:22:08;;;;;;;27.97;12.57;;;;;;;-6.67;100.00;100552.41;10590206;28;20521;-70
2021/12/26 06:27:13;;;;;;;31.53;12.90;;;;;;;-6.81;100.00;100561.69;10590007;28;20225;-66
2021/12/26 06:32:17;;;;;;;30.37;13.00;;;;;;;-7.01;100.00;100581.41;10589968;28;20218;-66
2021/12/26 06:37:20;;;;;;;37.97;14.23;;;;;;;-6.96;100.00;100578.41;10589601;28;20219;-72
2021/12/26 06:42:24;;;;;;;36.73;13.40;;;;;;;-6.96;100.00;100585.06;10589220;28;20215;-68
2021/12/26 06:47:28;;;;;;;33.83;14.00;;;;;;;-6.98;100.00;100586.63;10589125;28;20555;-70
2021/12/26 06:52:31;;;;;;;34.60;13.77;;;;;;;-7.05;100.00;100582.84;10589192;28;20555;-69
2021/12/26 06:57:36;;;;;;;29.77;12.33;;;;;;;-6.81;100.00;100589.41;10588800;28;20218;-71
2021/12/26 07:02:39;;;;;;;31.63;12.70;;;;;;;-6.83;100.00;100585.94;10588427;28;20221;-69
2021/12/26 07:07:43;;;;;;;31.60;11.97;;;;;;;-6.57;100.00;100595.97;10585835;28;20226;-69
2021/12/26 07:12:48;;;;;;;26.23;12.03;;;;;;;-6.48;100.00;100606.63;10585101;28;20856;-72
2021/12/26 07:17:51;;;;;;;32.40;12.57;;;;;;;-6.69;100.00;100602.78;10193496;27;10000434;-70
2021/12/26 07:22:55;;;;;;;27.77;13.97;;;;;;;-6.51;100.00;100605.56;10542588;28;20225;-62
2021/12/26 07:28:03;;;;;;;29.33;12.53;;;;;;;-6.53;100.00;100607.13;10541996;28;20567;-69
2021/12/26 07:33:07;;;;;;;28.70;11.40;;;;;;;-6.47;100.00;100610.03;10541807;28;20306;-69
2021/12/26 07:38:12;;;;;;;32.33;13.47;;;;;;;-6.36;100.00;100609.00;10542935;28;20207;-65
2021/12/26 07:43:20;;;;;;;30.17;13.30;;;;;;;-6.35;100.00;100616.66;10540176;28;20611;-69
2021/12/26 07:48:23;;;;;;;37.97;13.17;;;;;;;-6.20;100.00;100630.22;10541253;28;20310;-66
2021/12/26 07:53:26;;;;;;;28.57;12.30;;;;;;;-6.11;100.00;100633.28;10540747;28;20298;-67
2021/12/26 07:58:31;;;;;;;31.13;12.60;;;;;;;-5.70;100.00;100633.16;10540801;28;20744;-66
2021/12/26 08:03:35;;;;;;;29.63;11.37;;;;;;;-5.63;100.00;100649.53;10540688;28;20215;-69
2021/12/26 08:08:39;;;;;;;31.07;10.93;;;;;;;-5.73;100.00;100648.16;10540388;28;20223;-67
2021/12/26 08:13:44;;;;;;;31.93;12.00;;;;;;;-5.53;100.00;100650.16;10544342;28;20222;-69
2021/12/26 08:18:47;;;;;;;28.10;12.10;;;;;;;-5.44;100.00;100642.22;10583221;28;20215;-67
2021/12/26 08:23:50;;;;;;;26.37;11.43;;;;;;;-5.42;100.00;100648.25;10582179;28;20225;-67
2021/12/26 08:28:55;;;;;;;26.13;12.17;;;;;;;-5.15;100.00;100659.94;10582053;28;20214;-69
2021/12/26 08:33:58;;;;;;;27.33;10.93;;;;;;;-5.11;100.00;100661.84;10581706;28;20237;-68
2021/12/26 08:39:03;;;;;;;25.70;11.10;;;;;;;-4.99;100.00;100660.84;10581523;28;20237;-65
2021/12/26 08:44:07;;;;;;;26.93;10.73;;;;;;;-4.87;100.00;100651.41;10582152;28;20541;-69
2021/12/26 08:49:11;;;;;;;29.83;11.23;;;;;;;-4.76;100.00;100655.41;10581314;28;20309;-67
2021/12/26 08:54:15;;;;;;;26.37;11.10;;;;;;;-4.66;100.00;100659.34;10581344;28;20311;-67
2021/12/26 08:59:20;;;;;;;27.50;12.07;;;;;;;-4.63;100.00;100668.75;10581033;28;20297;-67
2021/12/26 09:04:23;;;;;;;30.53;12.40;;;;;;;-4.53;100.00;100655.78;10587003;28;20718;-68
2021/12/26 09:09:28;;;;;;;27.73;12.83;;;;;;;-4.62;100.00;100667.97;10593553;28;20215;-69
2021/12/26 09:14:33;;;;;;;29.87;12.20;;;;;;;-4.52;100.00;100662.63;10592916;28;20218;-66
2021/12/26 09:19:37;;;;;;;25.87;10.93;;;;;;;-4.37;100.00;100665.97;10593392;28;20214;-68
2021/12/26 09:24:40;;;;;;;31.87;12.47;;;;;;;-4.20;100.00;100663.53;10592495;28;20232;-67
2021/12/26 09:29:45;;;;;;;27.27;12.30;;;;;;;-4.50;100.00;100661.03;10592184;28;20210;-67
2021/12/26 09:34:48;;;;;;;32.10;13.30;;;;;;;-4.37;100.00;100646.56;10591282;28;20237;-68
2021/12/26 09:39:52;;;;;;;26.40;11.67;;;;;;;-4.84;100.00;100656.66;10592172;28;20222;-69
2021/12/26 09:44:58;;;;;;;21.37;11.13;;;;;;;-4.43;100.00;100650.41;10591793;28;20218;-70
2021/12/26 09:50:02;;;;;;;26.10;12.53;;;;;;;-4.44;100.00;100656.28;10591823;28;20214;-68
2021/12/26 09:55:06;;;;;;;28.83;12.50;;;;;;;-4.34;100.00;100666.09;10591022;28;20218;-65
2021/12/26 10:00:23;;;;;;;26.53;12.77;;;;;;;-4.30;100.00;100666.38;10591030;28;20694;-68
2021/12/26 10:05:26;;;;;;;31.87;12.60;;;;;;;-4.41;100.00;100658.97;10590548;28;20305;-68
2021/12/26 10:10:30;;;;;;;28.83;12.50;;;;;;;-4.39;100.00;100662.47;10590496;28;20221;-66
2021/12/26 10:15:49;;;;;;;27.30;12.83;;;;;;;-4.31;100.00;100667.16;10589765;28;20537;-70
2021/12/26 10:20:53;;;;;;;31.63;13.03;;;;;;;-4.20;100.00;100655.06;10590292;28;20305;-65
2021/12/26 10:25:56;;;;;;;33.00;14.20;;;;;;;-3.91;100.00;100671.00;10589832;28;20228;-70
2021/12/26 10:31:13;;;;;;;24.20;12.13;;;;;;;-4.10;100.00;100672.47;10590078;28;20224;-70
2021/12/26 10:36:16;;;;;;;28.57;12.47;;;;;;;-3.98;100.00;100673.13;10589530;28;20218;-69
2021/12/26 10:41:25;;;;;;;22.87;9.90;;;;;;;-4.06;100.00;100682.88;10588090;28;20521;-67
2021/12/26 10:46:31;;;;;;;24.73;12.40;;;;;;;-4.05;100.00;100665.97;10586178;28;20563;-66
2021/12/26 10:51:35;;;;;;;29.10;11.77;;;;;;;-4.09;100.00;100669.16;10205426;27;10000135;-67
2021/12/26 10:56:38;;;;;;;26.23;12.00;;;;;;;-4.01;100.00;100680.56;10543239;28;20226;-69
2021/12/26 11:01:43;;;;;;;26.07;11.70;;;;;;;-3.93;100.00;100681.81;10543309;28;20219;-69
2021/12/26 11:07:03;;;;;;;22.93;10.07;;;;;;;-3.55;100.00;100677.06;10542897;28;20697;-70
2021/12/26 11:12:09;;;;;;;22.23;10.37;;;;;;;-3.57;100.00;100683.72;10542721;28;20215;-68
2021/12/26 11:17:32;;;;;;;24.20;11.37;;;;;;;-3.51;100.00;100686.56;10542770;28;20219;-69
2021/12/26 11:22:36;;;;;;;20.20;9.13;;;;;;;-3.34;100.00;100680.66;10542533;28;20226;-71
2021/12/26 11:27:39;;;;;;;21.73;11.00;;;;;;;-3.50;100.00;100682.38;10541741;28;20306;-68
2021/12/26 11:32:47;;;;;;;23.93;10.97;;;;;;;-3.54;100.00;100681.34;10542050;28;20215;-67
2021/12/26 11:37:51;;;;;;;23.37;10.97;;;;;;;-3.44;100.00;100690.28;10541740;28;20220;-68
2021/12/26 11:43:14;;;;;;;22.73;10.67;;;;;;;-3.50;100.00;100684.91;10542033;28;20268;-69
2021/12/26 11:48:55;;;;;;;21.30;9.93;;;;;;;-3.40;100.00;100677.84;10499965;28;20223;-68
2021/12/26 11:54:32;;;;;;;28.40;11.03;;;;;;;-3.35;100.00;100676.41;10584123;28;20301;-69
2021/12/26 11:59:58;;;;;;;21.00;10.07;;;;;;;-2.93;100.00;100658.19;10577898;28;20249;-68
2021/12/26 12:05:20;;;;;;;20.47;10.77;;;;;;;-2.99;100.00;100655.34;10584186;28;20303;-71
2021/12/26 12:10:46;;;;;;;20.60;9.60;;;;;;;-2.69;100.00;100669.50;10586234;28;20656;-66
2021/12/26 12:15:54;;;;;;;19.20;9.77;;;;;;;-2.70;100.00;100665.22;10585738;28;20226;-68
2021/12/26 12:21:10;;;;;;;19.23;10.00;;;;;;;-2.71;100.00;100666.00;10585440;28;20700;-67
2021/12/26 12:26:38;;;;;;;23.50;10.30;;;;;;;-2.52;100.00;100660.13;10585391;28;20297;-68
2021/12/26 12:31:43;;;;;;;23.97;9.00;;;;;;;-2.29;100.00;100662.03;10585139;28;20305;-72
2021/12/26 12:36:46;;;;;;;17.27;8.50;;;;;;;-2.47;100.00;100653.59;10584583;28;20263;-67
2021/12/26 12:41:51;;;;;;;22.07;8.63;;;;;;;-2.17;100.00;100656.66;10584974;28;20608;-68
2021/12/26 12:47:01;;;;;;;21.77;9.17;;;;;;;-2.46;100.00;100650.25;10584760;28;20667;-68
2021/12/26 12:52:05;;;;;;;19.50;9.03;;;;;;;-2.19;100.00;100658.25;10584737;28;20279;-67
2021/12/26 12:57:09;;;;;;;21.30;9.23;;;;;;;-2.24;100.00;100668.19;10584418;28;20306;-68
2021/12/26 13:02:34;;;;;;;21.97;8.63;;;;;;;-2.29;100.00;100656.06;10581996;28;20219;-67
2021/12/26 13:07:37;;;;;;;22.63;9.27;;;;;;;-2.55;100.00;100652.34;10584357;28;20240;-67
2021/12/26 13:12:41;;;;;;;22.10;9.80;;;;;;;-2.57;100.00;100659.06;10584514;28;20301;-66
2021/12/26 13:17:46;;;;;;;19.97;8.97;;;;;;;-2.62;100.00;100666.44;10584613;28;20233;-67
2021/12/26 13:22:52;;;;;;;20.07;9.33;;;;;;;-2.61;100.00;100668.19;10583869;28;20215;-70
2021/12/26 13:27:57;;;;;;;20.43;9.27;;;;;;;-2.96;100.00;100664.78;10584154;28;20219;-67
2021/12/26 13:33:02;;;;;;;19.73;9.23;;;;;;;-2.89;100.00;100667.69;10583913;28;20690;-66
2021/12/26 13:38:07;;;;;;;18.13;8.40;;;;;;;-2.96;100.00;100667.31;10583610;28;20223;-64
2021/12/26 13:43:11;;;;;;;19.20;9.37;;;;;;;-2.83;100.00;100667.13;10583555;28;20219;-64
2021/12/26 13:48:28;;;;;;;17.73;8.57;;;;;;;-3.04;100.00;100673.69;10583841;28;20223;-67
2021/12/26 13:53:38;;;;;;;30.93;12.67;;;;;;;-3.05;100.00;100677.88;10591101;28;20214;-65
2021/12/26 13:58:42;;;;;;;20.40;8.83;;;;;;;-3.04;100.00;100679.66;10588397;28;20233;-64
2021/12/26 14:03:48;;;;;;;21.53;9.20;;;;;;;-2.87;100.00;100686.41;10587473;28;20788;-65
2021/12/26 14:08:55;;;;;;;22.20;8.67;;;;;;;-3.13;100.00;100696.97;10587400;27;20214;-66
2021/12/26 14:14:06;;;;;;;25.00;9.50;;;;;;;-3.21;100.00;100700.75;10587597;27;20306;-66
2021/12/26 14:19:13;;;;;;;21.40;9.17;;;;;;;-3.16;100.00;100699.34;10586959;28;20225;-67
2021/12/26 14:24:20;;;;;;;24.27;10.23;;;;;;;-3.32;100.00;100696.84;10589603;28;20211;-67
2021/12/26 14:29:24;;;;;;;20.83;9.17;;;;;;;-3.35;100.00;100699.25;10589913;28;20559;-65
2021/12/26 14:34:31;;;;;;;22.60;10.50;;;;;;;-3.61;100.00;100687.75;10589829;28;20223;-68
2021/12/26 14:39:37;;;;;;;23.23;9.93;;;;;;;-3.66;100.00;100693.41;10589774;28;20233;-68
2021/12/26 14:44:42;;;;;;;21.53;9.13;;;;;;;-3.79;100.00;100688.47;10589308;28;20727;-66
2021/12/26 14:49:49;;;;;;;22.17;9.50;;;;;;;-3.89;100.00;100698.94;10589260;28;20297;-67
2021/12/26 14:54:54;;;;;;;23.40;9.93;;;;;;;-3.91;100.00;100695.44;10589228;28;20699;-67
2021/12/26 14:59:59;;;;;;;18.90;8.53;;;;;;;-3.97;100.00;100702.75;10588631;28;20229;-66
2021/12/26 15:05:08;;;;;;;21.83;9.77;;;;;;;-4.07;100.00;100703.91;10588329;28;20230;-65
2021/12/26 15:10:13;;;;;;;22.70;9.73;;;;;;;-4.12;100.00;100724.72;10588275;28;20702;-66
2021/12/26 15:15:22;;;;;;;20.43;9.57;;;;;;;-4.17;100.00;100718.53;10588043;28;20229;-67
2021/12/26 15:20:30;;;;;;;19.17;8.97;;;;;;;-4.24;100.00;100726.59;10587552;28;20237;-66
2021/12/26 15:25:36;;;;;;;23.37;10.17;;;;;;;-4.24;100.00;100719.00;10587796;28;20229;-65
2021/12/26 15:30:41;;;;;;;22.77;10.07;;;;;;;-4.35;100.00;100720.97;10587411;28;20227;-64
2021/12/26 15:35:49;;;;;;;27.27;11.30;;;;;;;-4.37;100.00;100729.28;10587313;28;20211;-66
2021/12/26 15:40:52;;;;;;;25.03;11.47;;;;;;;-4.40;100.00;100741.78;10587219;28;20218;-73
2021/12/26 15:45:56;;;;;;;24.90;11.13;;;;;;;-4.26;100.00;100751.00;10562436;28;20218;-65
2021/12/26 15:51:00;;;;;;;23.67;10.70;;;;;;;-4.32;100.00;100736.34;10544473;28;20525;-69
2021/12/26 15:56:05;;;;;;;26.73;10.93;;;;;;;-4.44;100.00;100735.66;10544558;28;20226;-66
2021/12/26 16:01:08;;;;;;;26.50;10.23;;;;;;;-4.48;100.00;100753.13;10544298;28;20222;-66
2021/12/26 16:06:14;;;;;;;24.83;11.30;;;;;;;-4.53;100.00;100752.00;10543762;28;20250;-65
2021/12/26 16:11:17;;;;;;;24.57;11.27;;;;;;;-4.51;100.00;100747.91;10543522;28;20221;-68
2021/12/26 16:16:20;;;;;;;30.67;13.13;;;;;;;-4.55;100.00;100746.84;10543334;28;20238;-69
2021/12/26 16:21:26;;;;;;;26.77;12.33;;;;;;;-4.72;100.00;100758.59;10543484;28;20289;-68
2021/12/26 16:26:29;;;;;;;27.07;11.37;;;;;;;-4.69;100.00;100764.59;10543289;28;20219;-67
2021/12/26 16:31:33;;;;;;;30.67;12.87;;;;;;;-4.62;100.00;100769.22;10542903;28;20660;-66
2021/12/26 16:36:37;;;;;;;28.53;12.83;;;;;;;-4.67;100.00;100774.00;10543097;28;20252;-71
2021/12/26 16:41:41;;;;;;;31.07;12.30;;;;;;;-4.73;100.00;100781.28;10542429;28;20673;-69
2021/12/26 16:46:44;;;;;;;37.00;15.13;;;;;;;-4.76;100.00;100779.44;10542437;28;20569;-65
2021/12/26 16:51:49;;;;;;;25.03;11.07;;;;;;;-4.79;100.00;100784.34;10542582;28;20215;-66
2021/12/26 16:56:53;;;;;;;24.73;11.87;;;;;;;-4.72;100.00;100786.44;10542255;28;20253;-70
2021/12/26 17:01:58;;;;;;;25.50;12.03;;;;;;;-4.80;100.00;100792.69;10542403;28;20591;-68
2021/12/26 17:07:03;;;;;;;36.47;13.10;;;;;;;-4.89;100.00;100793.84;10542036;28;20235;-66
2021/12/26 17:12:08;;;;;;;49.50;22.53;;;;;;;-4.94;100.00;100796.13;10540519;28;20253;-67
2021/12/26 17:17:11;;;;;;;48.80;20.87;;;;;;;-4.85;100.00;100795.78;10538293;28;20215;-65
2021/12/26 17:22:15;;;;;;;30.73;14.10;;;;;;;-4.90;100.00;100794.63;10538881;28;20676;-69
2021/12/26 17:27:21;;;;;;;27.47;13.33;;;;;;;-4.96;100.00;100796.78;10215277;27;10000295;-71
2021/12/26 17:32:25;;;;;;;32.87;14.93;;;;;;;-4.99;100.00;100799.16;10589296;28;20592;-68
2021/12/26 17:37:30;;;;;;;36.10;15.50;;;;;;;-5.03;100.00;100794.69;10589619;28;20218;-68
2021/12/26 17:42:33;;;;;;;36.33;15.57;;;;;;;-5.00;100.00;100810.91;10588684;28;20248;-72
2021/12/26 17:47:37;;;;;;;35.90;15.97;;;;;;;-5.07;100.00;100813.00;10588477;28;20720;-69
2021/12/26 17:52:43;;;;;;;36.30;16.80;;;;;;;-5.09;100.00;100810.38;10588205;28;20221;-70
2021/12/26 17:57:46;;;;;;;37.83;15.70;;;;;;;-5.08;100.00;100821.38;10587878;28;20214;-67
2021/12/26 18:02:49;;;;;;;37.10;16.67;;;;;;;-5.17;100.00;100820.84;10588628;28;20303;-67
2021/12/26 18:07:54;;;;;;;45.87;18.90;;;;;;;-5.39;100.00;100831.34;10587425;28;20667;-66
2021/12/26 18:12:58;;;;;;;37.80;17.27;;;;;;;-5.58;100.00;100825.97;10587309;28;20243;-67
2021/12/26 18:18:01;;;;;;;39.07;18.37;;;;;;;-5.65;100.00;100833.94;10587231;28;20227;-68
2021/12/26 18:23:06;;;;;;;51.07;21.63;;;;;;;-5.73;100.00;100842.72;10586893;28;20219;-68
2021/12/26 18:28:10;;;;;;;47.37;21.07;;;;;;;-5.80;100.00;100848.19;10556665;28;20215;-68
2021/12/26 18:33:14;;;;;;;48.17;22.13;;;;;;;-5.94;100.00;100844.81;10544418;28;20329;-65
2021/12/26 18:38:18;;;;;;;48.20;21.73;;;;;;;-5.96;100.00;100848.03;10543592;28;20306;-68
2021/12/26 18:43:22;;;;;;;45.90;20.93;;;;;;;-6.01;100.00;100846.88;10544267;28;20556;-69
2021/12/26 18:48:25;;;;;;;56.97;23.43;;;;;;;-6.10;100.00;100856.38;10543906;28;20223;-66
2021/12/26 18:53:30;;;;;;;57.20;23.47;;;;;;;-6.18;100.00;100860.09;10543585;28;20306;-70
2021/12/26 18:58:36;;;;;;;53.37;22.37;;;;;;;-6.25;100.00;100863.88;10543565;28;20234;-71
2021/12/26 19:03:39;;;;;;;57.23;22.90;;;;;;;-6.29;100.00;100863.56;10542965;28;20303;-70
2021/12/26 19:08:44;;;;;;;50.77;23.40;;;;;;;-6.30;100.00;100867.72;10543255;28;20219;-68
2021/12/26 19:13:48;;;;;;;53.40;23.20;;;;;;;-6.38;100.00;100861.34;10543124;28;20216;-67
2021/12/26 19:18:51;;;;;;;53.90;23.87;;;;;;;-6.42;100.00;100859.38;10542479;28;20226;-69
2021/12/26 19:23:56;;;;;;;50.17;22.93;;;;;;;-6.46;100.00;100866.66;10542711;28;20192;-68
2021/12/26 19:29:01;;;;;;;57.10;24.07;;;;;;;-6.36;100.00;100863.94;10579138;28;20191;-67
2021/12/26 19:34:04;;;;;;;53.03;23.63;;;;;;;-6.47;100.00;100882.59;10584079;28;20191;-69
2021/12/26 19:39:09;;;;;;;53.40;23.80;;;;;;;-6.47;100.00;100888.50;10584053;28;20693;-68
2021/12/26 19:44:16;;;;;;;56.60;24.70;;;;;;;-6.47;100.00;100877.53;10549298;27;20205;-68
2021/12/26 19:49:19;;;;;;;61.90;25.33;;;;;;;-6.51;100.00;100876.47;10540864;28;20525;-69
2021/12/26 19:54:24;;;;;;;57.73;23.97;;;;;;;-6.52;100.00;100876.38;10540933;28;20639;-67
2021/12/26 19:59:30;;;;;;;55.00;24.20;;;;;;;-6.68;100.00;100871.97;10540835;28;20223;-68
2021/12/26 20:04:33;;;;;;;67.27;27.57;;;;;;;-6.70;100.00;100878.56;10540994;28;20310;-66
2021/12/26 20:09:38;;;;;;;57.47;25.00;;;;;;;-6.77;100.00;100878.06;10540524;28;20187;-67
2021/12/26 20:14:41;;;;;;;64.73;26.77;;;;;;;-6.81;100.00;100876.09;10540349;28;20213;-70
2021/12/26 20:19:44;;;;;;;60.50;27.67;;;;;;;-6.81;100.00;100874.44;10540371;28;20215;-69
2021/12/26 20:24:49;;;;;;;66.67;26.87;;;;;;;-6.83;100.00;100872.63;10541496;28;20222;-68
2021/12/26 20:29:52;;;;;;;66.07;28.53;;;;;;;-6.86;100.00;100883.38;10582435;28;20215;-69
2021/12/26 20:34:56;;;;;;;59.17;26.63;;;;;;;-6.82;100.00;100876.88;10582035;28;20643;-70
2021/12/26 20:40:00;;;;;;;63.60;26.33;;;;;;;-6.86;100.00;100882.47;10581512;28;20649;-68
2021/12/26 20:45:06;;;;;;;65.50;27.63;;;;;;;-6.94;100.00;100876.06;10581774;28;20313;-67
2021/12/26 20:50:11;;;;;;;60.63;27.27;;;;;;;-6.99;100.00;100870.72;10581420;28;20540;-69
2021/12/26 20:55:15;;;;;;;59.97;26.53;;;;;;;-7.06;100.00;100878.66;10581602;28;20206;-69
2021/12/26 21:00:23;;;;;;;63.57;26.83;;;;;;;-7.16;100.00;100882.19;10581049;28;20233;-67
2021/12/26 21:05:26;;;;;;;68.20;27.13;;;;;;;-7.13;100.00;100876.50;10580991;28;20244;-70
2021/12/26 21:10:31;;;;;;;60.27;28.17;;;;;;;-7.20;100.00;100882.78;10581133;28;20675;-70
2021/12/26 21:15:34;;;;;;;74.37;30.07;;;;;;;-7.23;100.00;100879.16;10581252;28;20225;-68
2021/12/26 21:20:38;;;;;;;77.60;31.43;;;;;;;-7.13;100.00;100866.41;10580711;28;20218;-70
2021/12/26 21:25:43;;;;;;;77.27;32.50;;;;;;;-7.19;100.00;100876.94;10571564;28;20225;-67
2021/12/26 21:30:46;;;;;;;87.67;35.13;;;;;;;-7.13;100.00;100867.25;10538578;28;20223;-69
2021/12/26 21:35:53;;;;;;;93.90;39.73;;;;;;;-7.16;100.00;100879.66;10538391;28;20219;-68
2021/12/26 21:40:57;;;;;;;100.67;43.40;;;;;;;-7.33;100.00;100887.72;10538598;28;20227;-66
2021/12/26 21:46:01;;;;;;;100.50;43.10;;;;;;;-7.45;100.00;100894.44;10538458;28;20215;-67
2021/12/26 21:51:05;;;;;;;90.37;39.97;;;;;;;-7.49;100.00;100892.47;10541225;28;20673;-67
2021/12/26 21:56:11;;;;;;;94.93;40.97;;;;;;;-7.52;100.00;100906.50;10541332;28;20293;-67
2021/12/26 22:01:14;;;;;;;95.00;40.13;;;;;;;-7.73;100.00;100910.06;10539521;28;20640;-68
2021/12/26 22:06:18;;;;;;;93.33;40.70;;;;;;;-7.81;100.00;100908.63;10537982;28;20231;-67
2021/12/26 22:11:23;;;;;;;108.07;43.57;;;;;;;-7.90;100.00;100905.50;10540891;28;20695;-67
2021/12/26 22:16:26;;;;;;;99.13;39.97;;;;;;;-7.90;100.00;100915.56;10545637;28;20211;-70
2021/12/26 22:21:29;;;;;;;93.27;40.37;;;;;;;-8.01;100.00;100914.81;10545123;28;20233;-66
2021/12/26 22:26:34;;;;;;;89.03;37.20;;;;;;;-8.05;100.00;100916.97;10544738;28;20553;-67
2021/12/26 22:31:37;;;;;;;90.10;40.03;;;;;;;-8.17;100.00;100923.66;10544748;28;20328;-69
2021/12/26 22:36:40;;;;;;;99.40;40.23;;;;;;;-8.19;100.00;100932.72;10544772;28;20271;-67